Algoma, Wisconsin
Current Conditions -  °F | °C
As of 2:15 AM on Sunday 26 Oct 2014 (Local Time) from KSUE Reporting Station
Clear Clear  
Wind Chill: 42°   Ceiling: Unl
Heat Index: 46°   Visibility: 10mi
Dew Point: 30°   Wind: 8mph
Humidity: 53%   Direction: 290°WNW
Pressure: 29.92"   Gusts: NA
Location:  44.61°N, 87.43°W
Report Text: KSUE 260715Z AUTO 29007KT 10SM CLR 08/M01 A2992 RMK AO1
Loading
Personal Weather Stations






























Interactive Weather Map New forecast layout! Learn more

10-Day Weather Forecast

Advertisements
Track Severe Weather on mobile